createdAt,value
2017-03-12T00:00:23.664Z,1023.34
2017-03-12T00:01:04.127Z,1023.33
2017-03-12T00:01:44.616Z,1023.35
2017-03-12T00:02:25.129Z,1023.37
2017-03-12T00:03:05.617Z,1023.4
2017-03-12T00:03:46.134Z,1023.39
2017-03-12T00:04:26.603Z,1023.36
2017-03-12T00:05:07.061Z,1023.37
2017-03-12T00:05:47.552Z,1023.39
2017-03-12T00:06:28.034Z,1023.36
2017-03-12T00:07:08.575Z,1023.44
2017-03-12T00:07:49.000Z,1023.38
2017-03-12T00:08:29.460Z,1023.37
2017-03-12T00:09:09.964Z,1023.43
2017-03-12T00:09:50.452Z,1023.38
2017-03-12T00:10:31.117Z,1023.37
2017-03-12T00:11:11.641Z,1023.43
2017-03-12T00:11:52.102Z,1023.38
2017-03-12T00:12:32.563Z,1023.4
2017-03-12T00:13:13.061Z,1023.4
2017-03-12T00:13:53.604Z,1023.4
2017-03-12T00:14:34.005Z,1023.41
2017-03-12T00:15:14.483Z,1023.4
2017-03-12T00:15:54.969Z,1023.4
2017-03-12T00:16:35.446Z,1023.42
2017-03-12T00:17:15.934Z,1023.45
2017-03-12T00:17:56.396Z,1023.42
2017-03-12T00:18:36.874Z,1023.44
2017-03-12T00:19:17.389Z,1023.44
2017-03-12T00:19:57.894Z,1023.4
2017-03-12T00:20:38.324Z,1023.45
2017-03-12T00:21:18.793Z,1023.42
2017-03-12T00:21:59.313Z,1023.39
2017-03-12T00:22:39.798Z,1023.4
2017-03-12T00:23:20.275Z,1023.41
2017-03-12T00:24:00.795Z,1023.4
2017-03-12T00:24:41.269Z,1023.42
2017-03-12T00:25:21.759Z,1023.38
2017-03-12T00:26:02.219Z,1023.4
2017-03-12T00:26:42.688Z,1023.43
2017-03-12T00:27:23.157Z,1023.39
2017-03-12T00:28:03.769Z,1023.44
2017-03-12T00:28:44.257Z,1023.42
2017-03-12T00:29:24.732Z,1023.42
2017-03-12T00:30:05.201Z,1023.41
2017-03-12T00:30:45.667Z,1023.4
2017-03-12T00:31:26.169Z,1023.42
2017-03-12T00:32:06.658Z,1023.39
2017-03-12T00:32:47.133Z,1023.42
2017-03-12T00:33:27.603Z,1023.42
2017-03-12T00:34:08.067Z,1023.47
2017-03-12T00:34:48.542Z,1023.37
2017-03-12T00:35:29.046Z,1023.39
2017-03-12T00:36:09.536Z,1023.39
2017-03-12T00:36:50.029Z,1023.4
2017-03-12T00:37:30.513Z,1023.42
2017-03-12T00:38:10.989Z,1023.39
2017-03-12T00:38:51.437Z,1023.37
2017-03-12T00:39:31.908Z,1023.36
2017-03-12T00:40:12.401Z,1023.37
2017-03-12T00:40:52.852Z,1023.43
2017-03-12T00:41:33.350Z,1023.37
2017-03-12T00:42:13.863Z,1023.39
2017-03-12T00:42:54.351Z,1023.36
2017-03-12T00:43:34.823Z,1023.35
2017-03-12T00:44:15.330Z,1023.36
2017-03-12T00:44:55.824Z,1023.35
2017-03-12T00:45:36.308Z,1023.34
2017-03-12T00:46:16.786Z,1023.37
2017-03-12T00:46:57.277Z,1023.36
2017-03-12T00:47:37.762Z,1023.39
2017-03-12T00:48:18.248Z,1023.39
2017-03-12T00:48:58.744Z,1023.35
2017-03-12T00:49:39.211Z,1023.33
2017-03-12T00:50:19.708Z,1023.34
2017-03-12T00:51:00.189Z,1023.36
2017-03-12T00:51:40.683Z,1023.4
2017-03-12T00:52:21.150Z,1023.4
2017-03-12T00:53:01.619Z,1023.38
2017-03-12T00:53:42.109Z,1023.4
2017-03-12T00:54:22.598Z,1023.41
2017-03-12T00:55:03.081Z,1023.36
2017-03-12T00:55:43.561Z,1023.33
2017-03-12T00:56:24.042Z,1023.37
2017-03-12T00:57:04.545Z,1023.36
2017-03-12T00:57:45.058Z,1023.35
2017-03-12T00:58:25.481Z,1023.38
2017-03-12T00:59:05.993Z,1023.38
2017-03-12T00:59:46.480Z,1023.36
2017-03-12T01:00:26.945Z,1023.4
2017-03-12T01:01:07.409Z,1023.36
2017-03-12T01:01:47.922Z,1023.36
2017-03-12T01:02:28.426Z,1023.4
2017-03-12T01:03:08.937Z,1023.37
2017-03-12T01:03:49.439Z,1023.4
2017-03-12T01:04:29.896Z,1023.37
2017-03-12T01:05:10.372Z,1023.34
2017-03-12T01:05:50.890Z,1023.45
2017-03-12T01:06:31.351Z,1023.4
2017-03-12T01:07:11.837Z,1023.4
2017-03-12T01:07:52.300Z,1023.42
2017-03-12T01:08:32.812Z,1023.39
2017-03-12T01:09:13.309Z,1023.39
2017-03-12T01:09:53.808Z,1023.37
2017-03-12T01:10:34.286Z,1023.34
2017-03-12T01:11:14.765Z,1023.36
2017-03-12T01:11:55.339Z,1023.32
2017-03-12T01:12:35.774Z,1023.34
2017-03-12T01:13:16.272Z,1023.34
2017-03-12T01:13:56.767Z,1023.38
2017-03-12T01:14:37.264Z,1023.34
2017-03-12T01:15:17.768Z,1023.37
2017-03-12T01:15:58.213Z,1023.38
2017-03-12T01:16:38.725Z,1023.35
2017-03-12T01:17:19.234Z,1023.34
2017-03-12T01:17:59.679Z,1023.35
2017-03-12T01:18:40.169Z,1023.26
2017-03-12T01:19:22.612Z,1023.29
2017-03-12T01:20:03.121Z,1023.28
2017-03-12T01:20:43.575Z,1023.3
2017-03-12T01:21:24.108Z,1023.3
2017-03-12T01:22:04.589Z,1023.23
2017-03-12T01:22:45.082Z,1023.24
2017-03-12T01:23:25.578Z,1023.2
2017-03-12T01:24:06.070Z,1023.24
2017-03-12T01:24:46.540Z,1023.24
2017-03-12T01:25:27.046Z,1023.27
2017-03-12T01:26:07.504Z,1023.27
2017-03-12T01:26:48.019Z,1023.22
2017-03-12T01:27:28.509Z,1023.23
2017-03-12T01:28:09.063Z,1023.23
2017-03-12T01:28:49.543Z,1023.25
2017-03-12T01:29:30.047Z,1023.22
2017-03-12T01:30:10.484Z,1023.22
2017-03-12T01:30:50.975Z,1023.19
2017-03-12T01:31:31.430Z,1023.21
2017-03-12T01:32:11.933Z,1023.17
2017-03-12T01:32:52.425Z,1023.19
2017-03-12T01:33:32.899Z,1023.17
2017-03-12T01:34:13.376Z,1023.17
2017-03-12T01:34:53.852Z,1023.16
2017-03-12T01:35:34.314Z,1023.16
2017-03-12T01:36:14.782Z,1023.14
2017-03-12T01:36:55.250Z,1023.17
2017-03-12T01:37:35.710Z,1023.16
2017-03-12T01:38:16.216Z,1023.17
2017-03-12T01:38:56.700Z,1023.14
2017-03-12T01:39:37.164Z,1023.14
2017-03-12T01:40:17.698Z,1023.2
2017-03-12T01:40:58.172Z,1023.13
2017-03-12T01:41:38.697Z,1023.11
2017-03-12T01:42:19.162Z,1023.12
2017-03-12T01:42:59.619Z,1023.1
2017-03-12T01:43:40.106Z,1023.12
2017-03-12T01:44:20.601Z,1023.09
2017-03-12T01:45:01.070Z,1023.09
2017-03-12T01:45:41.562Z,1023.11
2017-03-12T01:46:22.060Z,1023.08
2017-03-12T01:47:02.552Z,1023.05
2017-03-12T01:47:43.026Z,1023.06
2017-03-12T01:48:23.515Z,1023.04
2017-03-12T01:49:03.988Z,1023.02
2017-03-12T01:49:44.470Z,1022.96
2017-03-12T01:50:24.945Z,1023.04
2017-03-12T01:51:05.449Z,1023.03
2017-03-12T01:51:45.917Z,1022.99
2017-03-12T01:52:26.399Z,1023.03
2017-03-12T01:53:06.863Z,1023.03
2017-03-12T01:53:47.363Z,1022.98
2017-03-12T01:54:27.849Z,1022.93
2017-03-12T01:55:08.366Z,1022.92
2017-03-12T01:55:48.881Z,1022.92
2017-03-12T01:56:29.329Z,1022.91
2017-03-12T01:57:09.855Z,1022.92
2017-03-12T01:57:50.323Z,1022.91
2017-03-12T01:58:30.829Z,1022.93
2017-03-12T01:59:11.304Z,1022.96
2017-03-12T01:59:51.853Z,1022.9
2017-03-12T02:00:32.293Z,1022.9
2017-03-12T02:01:12.782Z,1022.89
2017-03-12T02:01:53.343Z,1022.89
2017-03-12T02:02:33.798Z,1022.87
2017-03-12T02:03:14.270Z,1022.86
2017-03-12T02:03:54.754Z,1022.82
2017-03-12T02:04:35.272Z,1022.91
2017-03-12T02:05:15.772Z,1022.77
2017-03-12T02:05:56.268Z,1022.81
2017-03-12T02:06:36.773Z,1022.79
2017-03-12T02:07:17.320Z,1022.77
2017-03-12T02:07:57.816Z,1022.79
2017-03-12T02:08:38.338Z,1022.81
2017-03-12T02:09:18.811Z,1022.81
2017-03-12T02:09:59.278Z,1022.86
2017-03-12T02:10:39.737Z,1022.82
2017-03-12T02:11:20.220Z,1022.81
2017-03-12T02:12:00.870Z,1022.84
2017-03-12T02:12:41.187Z,1022.88
2017-03-12T02:13:21.657Z,1022.82
2017-03-12T02:14:02.128Z,1022.83
2017-03-12T02:14:42.642Z,1022.81
2017-03-12T02:15:23.102Z,1022.82
2017-03-12T02:16:03.591Z,1022.78
2017-03-12T02:16:44.087Z,1022.74
2017-03-12T02:17:24.540Z,1022.69
2017-03-12T02:18:05.055Z,1022.72
2017-03-12T02:18:45.530Z,1022.7
2017-03-12T02:19:26.016Z,1022.68
2017-03-12T02:20:06.509Z,1022.76
2017-03-12T02:20:47.007Z,1022.75
2017-03-12T02:21:27.484Z,1022.69
2017-03-12T02:22:07.944Z,1022.66
2017-03-12T02:22:48.456Z,1022.67
2017-03-12T02:23:28.965Z,1022.66
2017-03-12T02:24:09.424Z,1022.64
2017-03-12T02:24:49.928Z,1022.63
2017-03-12T02:25:30.399Z,1022.63
2017-03-12T02:26:11.061Z,1022.61
2017-03-12T02:26:51.566Z,1022.6
2017-03-12T02:27:32.076Z,1022.61
2017-03-12T02:28:12.511Z,1022.58
2017-03-12T02:28:52.999Z,1022.61
2017-03-12T02:29:33.471Z,1022.56
2017-03-12T02:30:13.938Z,1022.56
2017-03-12T02:30:54.398Z,1022.49
2017-03-12T02:31:34.943Z,1022.55
2017-03-12T02:32:15.443Z,1022.52
2017-03-12T02:32:55.912Z,1022.54
2017-03-12T02:33:36.415Z,1022.54
2017-03-12T02:34:16.907Z,1022.58
2017-03-12T02:34:57.460Z,1022.53
2017-03-12T02:35:37.932Z,1022.51
2017-03-12T02:36:18.421Z,1022.56
2017-03-12T02:36:58.931Z,1022.55
2017-03-12T02:37:39.421Z,1022.51
2017-03-12T02:38:19.909Z,1022.51
2017-03-12T02:39:00.402Z,1022.52
2017-03-12T02:39:40.858Z,1022.47
2017-03-12T02:40:21.329Z,1022.5
2017-03-12T02:41:01.825Z,1022.55
2017-03-12T02:41:42.311Z,1022.57
2017-03-12T02:42:22.809Z,1022.5
2017-03-12T02:43:03.293Z,1022.49
2017-03-12T02:43:43.795Z,1022.5
2017-03-12T02:44:24.280Z,1022.52
2017-03-12T02:45:04.739Z,1022.5
2017-03-12T02:45:45.224Z,1022.48
2017-03-12T02:46:25.729Z,1022.54
2017-03-12T02:47:06.199Z,1022.53
2017-03-12T02:47:46.694Z,1022.51
2017-03-12T02:48:27.172Z,1022.46
2017-03-12T02:49:07.646Z,1022.51
2017-03-12T02:49:48.138Z,1022.51
2017-03-12T02:50:28.616Z,1022.52
2017-03-12T02:51:09.114Z,1022.51
2017-03-12T02:51:49.619Z,1022.5
2017-03-12T02:52:30.161Z,1022.53
2017-03-12T02:53:10.620Z,1022.56
2017-03-12T02:53:51.091Z,1022.52
2017-03-12T02:54:31.597Z,1022.53
2017-03-12T02:55:12.123Z,1022.57
2017-03-12T02:55:52.614Z,1022.52
2017-03-12T02:56:33.088Z,1022.53
2017-03-12T02:57:13.589Z,1022.51
2017-03-12T02:57:54.089Z,1022.48
2017-03-12T02:58:34.609Z,1022.49
2017-03-12T02:59:15.102Z,1022.51
2017-03-12T02:59:55.597Z,1022.5
2017-03-12T03:00:36.079Z,1022.48
2017-03-12T03:01:16.548Z,1022.5
2017-03-12T03:01:57.030Z,1022.5
2017-03-12T03:02:37.505Z,1022.47
2017-03-12T03:03:17.964Z,1022.47
2017-03-12T03:03:58.453Z,1022.44
2017-03-12T03:04:38.929Z,1022.47
2017-03-12T03:05:19.397Z,1022.46
2017-03-12T03:05:59.886Z,1022.45
2017-03-12T03:06:40.370Z,1022.49
2017-03-12T03:07:20.869Z,1022.47
2017-03-12T03:08:01.356Z,1022.46
2017-03-12T03:08:41.819Z,1022.48
2017-03-12T03:09:22.330Z,1022.46
2017-03-12T03:10:02.812Z,1022.44
2017-03-12T03:10:43.299Z,1022.47
2017-03-12T03:11:23.886Z,1022.45
2017-03-12T03:12:04.384Z,1022.43
2017-03-12T03:12:44.867Z,1022.5
2017-03-12T03:13:25.349Z,1022.39
2017-03-12T03:14:05.878Z,1022.43
2017-03-12T03:14:46.345Z,1022.4
2017-03-12T03:15:26.857Z,1022.4
2017-03-12T03:16:07.385Z,1022.38
2017-03-12T03:16:47.827Z,1022.37
2017-03-12T03:17:28.314Z,1022.37
2017-03-12T03:18:08.834Z,1022.38
2017-03-12T03:18:49.318Z,1022.35
2017-03-12T03:19:29.775Z,1022.4
2017-03-12T03:20:10.248Z,1022.4
2017-03-12T03:20:50.743Z,1022.4
2017-03-12T03:21:31.208Z,1022.36
2017-03-12T03:22:11.675Z,1022.39
2017-03-12T03:22:52.142Z,1022.4
2017-03-12T03:23:32.672Z,1022.31
2017-03-12T03:24:13.166Z,1022.34
2017-03-12T03:24:53.656Z,1022.31
2017-03-12T03:25:34.159Z,1022.38
2017-03-12T03:26:14.668Z,1022.36
2017-03-12T03:26:55.115Z,1022.34
2017-03-12T03:27:35.578Z,1022.3
2017-03-12T03:28:16.116Z,1022.32
2017-03-12T03:28:56.613Z,1022.35
2017-03-12T03:29:37.064Z,1022.31
2017-03-12T03:30:17.552Z,1022.35
2017-03-12T03:30:58.060Z,1022.33
2017-03-12T03:31:38.527Z,1022.33
2017-03-12T03:32:19.079Z,1022.38
2017-03-12T03:32:59.587Z,1022.36
2017-03-12T03:33:40.111Z,1022.33
2017-03-12T03:34:20.555Z,1022.36
2017-03-12T03:35:01.010Z,1022.3
2017-03-12T03:35:41.526Z,1022.31
2017-03-12T03:36:22.038Z,1022.28
2017-03-12T03:37:02.512Z,1022.29
2017-03-12T03:37:42.999Z,1022.26
2017-03-12T03:38:23.503Z,1022.31
2017-03-12T03:39:04.010Z,1022.31
2017-03-12T03:39:44.489Z,1022.28
2017-03-12T03:40:24.972Z,1022.32
2017-03-12T03:41:05.479Z,1022.33
2017-03-12T03:41:45.951Z,1022.31
2017-03-12T03:42:26.447Z,1022.3
2017-03-12T03:43:06.893Z,1022.32
2017-03-12T03:43:47.372Z,1022.28
2017-03-12T03:44:27.872Z,1022.31
2017-03-12T03:45:08.371Z,1022.3
2017-03-12T03:45:48.907Z,1022.27
2017-03-12T03:46:29.382Z,1022.25
2017-03-12T03:47:09.848Z,1022.33
2017-03-12T03:47:50.376Z,1022.28
2017-03-12T03:48:30.854Z,1022.25
2017-03-12T03:49:11.309Z,1022.26
2017-03-12T03:49:51.832Z,1022.26
2017-03-12T03:50:32.336Z,1022.28
2017-03-12T03:51:12.832Z,1022.25
2017-03-12T03:51:53.288Z,1022.3
2017-03-12T03:52:33.775Z,1022.24
2017-03-12T03:53:14.256Z,1022.27
2017-03-12T03:53:54.745Z,1022.26
2017-03-12T03:54:35.221Z,1022.31
2017-03-12T03:55:15.705Z,1022.27
2017-03-12T03:55:56.244Z,1022.28
2017-03-12T03:56:36.697Z,1022.24
2017-03-12T03:57:17.148Z,1022.29
2017-03-12T03:57:57.638Z,1022.24
2017-03-12T03:58:38.167Z,1022.28
2017-03-12T03:59:18.666Z,1022.21
2017-03-12T03:59:59.147Z,1022.21
2017-03-12T04:00:39.637Z,1022.26
2017-03-12T04:01:20.138Z,1022.25
2017-03-12T04:02:00.625Z,1022.22
2017-03-12T04:02:41.135Z,1022.24
2017-03-12T04:03:21.624Z,1022.23
2017-03-12T04:04:02.118Z,1022.21
2017-03-12T04:04:42.599Z,1022.2
2017-03-12T04:05:23.101Z,1022.22
2017-03-12T04:06:03.559Z,1022.17
2017-03-12T04:06:44.034Z,1022.1
2017-03-12T04:07:24.520Z,1022.14
2017-03-12T04:08:04.983Z,1022.09
2017-03-12T04:08:45.464Z,1022.19
2017-03-12T04:09:25.949Z,1022.16
2017-03-12T04:10:06.447Z,1022.14
2017-03-12T04:10:46.962Z,1022.2
2017-03-12T04:11:27.476Z,1022.18
2017-03-12T04:12:07.989Z,1022.15
2017-03-12T04:12:48.461Z,1022.22
2017-03-12T04:13:28.976Z,1022.15
2017-03-12T04:14:09.473Z,1022.18
2017-03-12T04:14:49.943Z,1022.16
2017-03-12T04:15:30.428Z,1022.19
2017-03-12T04:16:10.918Z,1022.18
2017-03-12T04:16:51.440Z,1022.19
2017-03-12T04:17:31.920Z,1022.18
2017-03-12T04:18:12.410Z,1022.12
2017-03-12T04:18:52.885Z,1022.13
2017-03-12T04:19:33.436Z,1022.12
2017-03-12T04:20:13.899Z,1022.14
2017-03-12T04:20:54.407Z,1022.16
2017-03-12T04:21:34.869Z,1022.15
2017-03-12T04:22:15.352Z,1022.13
2017-03-12T04:22:55.841Z,1022.13
2017-03-12T04:23:36.361Z,1022.1
2017-03-12T04:24:16.891Z,1022.11
2017-03-12T04:24:57.359Z,1022.1
2017-03-12T04:25:37.821Z,1022.14
2017-03-12T04:26:18.339Z,1022.12
2017-03-12T04:26:58.810Z,1022.15
2017-03-12T04:27:39.305Z,1022.15
2017-03-12T04:28:19.771Z,1022.18
2017-03-12T04:29:00.254Z,1022.18
2017-03-12T04:29:40.741Z,1022.16
2017-03-12T04:30:21.220Z,1022.16
2017-03-12T04:31:01.750Z,1022.16
2017-03-12T04:31:42.252Z,1022.15
2017-03-12T04:32:22.708Z,1022.08
2017-03-12T04:33:03.167Z,1022.12
2017-03-12T04:33:43.676Z,1022.12
2017-03-12T04:34:24.186Z,1022.17
2017-03-12T04:35:04.671Z,1022.12
2017-03-12T04:35:45.201Z,1022.13
2017-03-12T04:36:25.685Z,1022.16
2017-03-12T04:37:06.156Z,1022.16
2017-03-12T04:37:46.624Z,1022.13
2017-03-12T04:38:27.114Z,1022.11
2017-03-12T04:39:07.602Z,1022.11
2017-03-12T04:39:48.144Z,1022.13
2017-03-12T04:40:28.621Z,1022.06
2017-03-12T04:41:09.197Z,1022.12
2017-03-12T04:41:49.707Z,1022.11
2017-03-12T04:42:30.171Z,1022.05
2017-03-12T04:43:10.636Z,1022.04
2017-03-12T04:43:51.127Z,1022.07
2017-03-12T04:44:31.596Z,1022.1
2017-03-12T04:45:12.096Z,1022.07
2017-03-12T04:45:52.598Z,1022.05
2017-03-12T04:46:33.047Z,1022.08
2017-03-12T04:47:13.508Z,1022.11
2017-03-12T04:47:54.034Z,1022.1
2017-03-12T04:48:34.550Z,1022.12
2017-03-12T04:49:15.055Z,1022.13
2017-03-12T04:49:55.553Z,1022.12
2017-03-12T04:50:36.039Z,1022.03
2017-03-12T04:51:16.504Z,1022.05
2017-03-12T04:51:57.000Z,1022.1
2017-03-12T04:52:37.496Z,1022.06
2017-03-12T04:53:17.970Z,1022.1
2017-03-12T04:53:58.431Z,1022.02
2017-03-12T04:54:38.971Z,1022.08
2017-03-12T04:55:19.471Z,1022.05
2017-03-12T04:55:59.933Z,1022.08
2017-03-12T04:56:40.409Z,1022.07
2017-03-12T04:57:20.878Z,1022.07
2017-03-12T04:58:01.338Z,1022.02
2017-03-12T04:58:41.850Z,1022.01
2017-03-12T04:59:22.341Z,1022.01
2017-03-12T05:00:02.825Z,1022.04
2017-03-12T05:00:43.326Z,1022.03
2017-03-12T05:01:23.760Z,1022.02
2017-03-12T05:02:04.253Z,1022.03
2017-03-12T05:02:44.736Z,1022.02
2017-03-12T05:03:25.193Z,1022.01
2017-03-12T05:04:05.699Z,1021.98
2017-03-12T05:04:46.200Z,1022.05
2017-03-12T05:05:26.691Z,1021.99
2017-03-12T05:06:07.154Z,1022
2017-03-12T05:06:47.658Z,1021.96
2017-03-12T05:07:28.142Z,1022.01
2017-03-12T05:08:08.597Z,1022
2017-03-12T05:08:49.156Z,1021.99
2017-03-12T05:09:29.640Z,1022.01
2017-03-12T05:10:10.112Z,1022.02
2017-03-12T05:10:50.573Z,1022.01
2017-03-12T05:11:31.057Z,1021.98
2017-03-12T05:12:11.547Z,1021.94
2017-03-12T05:12:52.045Z,1021.97
2017-03-12T05:13:32.535Z,1022
2017-03-12T05:14:13.010Z,1021.99
2017-03-12T05:14:53.471Z,1021.94
2017-03-12T05:15:33.956Z,1021.97
2017-03-12T05:16:14.470Z,1021.97
2017-03-12T05:16:54.981Z,1022.01
2017-03-12T05:17:35.462Z,1021.97
2017-03-12T05:18:15.920Z,1021.98
2017-03-12T05:18:56.438Z,1022
2017-03-12T05:19:36.955Z,1021.95
2017-03-12T05:20:17.425Z,1021.94
2017-03-12T05:20:57.912Z,1021.91
2017-03-12T05:21:38.388Z,1021.96
2017-03-12T05:22:18.860Z,1021.95
2017-03-12T05:22:59.383Z,1021.88
2017-03-12T05:23:39.842Z,1021.94
2017-03-12T05:24:20.327Z,1021.93
2017-03-12T05:25:00.800Z,1021.93
2017-03-12T05:25:41.284Z,1021.94
2017-03-12T05:26:21.769Z,1021.9
2017-03-12T05:27:02.279Z,1021.91
2017-03-12T05:27:42.743Z,1021.93
2017-03-12T05:28:23.271Z,1021.87
2017-03-12T05:29:03.754Z,1021.85
2017-03-12T05:29:44.260Z,1021.91
2017-03-12T05:30:24.724Z,1021.85
2017-03-12T05:31:05.213Z,1021.92
2017-03-12T05:31:45.713Z,1021.93
2017-03-12T05:32:26.205Z,1021.92
2017-03-12T05:33:06.667Z,1021.87
2017-03-12T05:33:47.121Z,1021.87
2017-03-12T05:34:27.594Z,1021.87
2017-03-12T05:35:08.070Z,1021.89
2017-03-12T05:35:48.553Z,1021.87
2017-03-12T05:36:29.030Z,1021.91
2017-03-12T05:37:09.541Z,1021.9
2017-03-12T05:37:50.022Z,1021.9
2017-03-12T05:38:30.495Z,1021.9
2017-03-12T05:39:10.962Z,1021.93
2017-03-12T05:39:51.415Z,1021.92
2017-03-12T05:40:31.886Z,1021.91
2017-03-12T05:41:12.378Z,1021.93
2017-03-12T05:41:52.874Z,1021.94
2017-03-12T05:42:33.329Z,1021.89
2017-03-12T05:43:13.815Z,1021.91
2017-03-12T05:43:54.348Z,1021.9
2017-03-12T05:44:34.803Z,1021.9
2017-03-12T05:45:15.293Z,1021.87
2017-03-12T05:45:55.828Z,1021.87
2017-03-12T05:46:36.293Z,1021.88
2017-03-12T05:47:16.762Z,1021.93
2017-03-12T05:47:57.231Z,1021.9
2017-03-12T05:48:37.731Z,1021.87
2017-03-12T05:49:18.188Z,1021.87
2017-03-12T05:49:58.679Z,1021.85
2017-03-12T05:50:39.161Z,1021.88
2017-03-12T05:51:19.628Z,1021.88
2017-03-12T05:52:00.099Z,1021.88
2017-03-12T05:52:40.598Z,1021.82
2017-03-12T05:53:21.113Z,1021.84
2017-03-12T05:54:01.582Z,1021.87
2017-03-12T05:54:42.068Z,1021.84
2017-03-12T05:55:22.538Z,1021.88
2017-03-12T05:56:03.018Z,1021.88
2017-03-12T05:56:43.514Z,1021.86
2017-03-12T05:57:23.981Z,1021.91
2017-03-12T05:58:04.509Z,1021.82
2017-03-12T05:58:44.994Z,1021.88
2017-03-12T05:59:25.485Z,1021.86
2017-03-12T06:00:05.954Z,1021.88
2017-03-12T06:00:46.436Z,1021.86
2017-03-12T06:01:26.930Z,1021.84
2017-03-12T06:02:07.432Z,1021.91
2017-03-12T06:02:47.870Z,1021.88
2017-03-12T06:03:28.390Z,1021.88
2017-03-12T06:04:08.851Z,1021.93
2017-03-12T06:04:49.375Z,1021.9
2017-03-12T06:05:29.859Z,1021.9
2017-03-12T06:06:10.325Z,1021.92
2017-03-12T06:06:50.840Z,1021.9
2017-03-12T06:07:31.280Z,1021.91
2017-03-12T06:08:11.745Z,1021.9
2017-03-12T06:08:52.237Z,1021.86
2017-03-12T06:09:32.730Z,1021.88
2017-03-12T06:10:13.203Z,1021.86
2017-03-12T06:10:53.681Z,1021.84
2017-03-12T06:11:34.153Z,1021.79
2017-03-12T06:12:14.643Z,1021.8
2017-03-12T06:12:55.114Z,1021.79
2017-03-12T06:13:35.604Z,1021.8
2017-03-12T06:14:16.106Z,1021.78
2017-03-12T06:14:56.538Z,1021.83
2017-03-12T06:15:37.034Z,1021.78
2017-03-12T06:16:17.558Z,1021.81
2017-03-12T06:16:58.060Z,1021.81
2017-03-12T06:17:38.545Z,1021.76
2017-03-12T06:18:19.013Z,1021.79
2017-03-12T06:18:59.557Z,1021.77
2017-03-12T06:19:40.075Z,1021.78
2017-03-12T06:20:20.578Z,1021.74
2017-03-12T06:21:01.016Z,1021.79
2017-03-12T06:21:41.495Z,1021.74
2017-03-12T06:22:21.998Z,1021.75
2017-03-12T06:23:02.507Z,1021.71
2017-03-12T06:23:43.003Z,1021.73
2017-03-12T06:24:23.479Z,1021.71
2017-03-12T06:25:03.972Z,1021.77
2017-03-12T06:25:44.477Z,1021.73
2017-03-12T06:26:24.969Z,1021.71
2017-03-12T06:27:05.423Z,1021.77
2017-03-12T06:27:45.935Z,1021.7
2017-03-12T06:28:26.419Z,1021.76
2017-03-12T06:29:06.937Z,1021.7
2017-03-12T06:29:47.397Z,1021.74
2017-03-12T06:30:27.866Z,1021.74
2017-03-12T06:31:08.338Z,1021.71
2017-03-12T06:31:48.814Z,1021.78
2017-03-12T06:32:29.311Z,1021.74
2017-03-12T06:33:09.769Z,1021.76
2017-03-12T06:33:50.271Z,1021.72
2017-03-12T06:34:30.758Z,1021.72
2017-03-12T06:35:11.251Z,1021.71
2017-03-12T06:35:51.740Z,1021.71
2017-03-12T06:36:32.231Z,1021.73
2017-03-12T06:37:12.714Z,1021.68
2017-03-12T06:37:53.198Z,1021.72
2017-03-12T06:38:33.698Z,1021.7
2017-03-12T06:39:14.181Z,1021.69
2017-03-12T06:39:54.681Z,1021.74
2017-03-12T06:40:35.126Z,1021.69
2017-03-12T06:41:15.594Z,1021.68
2017-03-12T06:41:56.067Z,1021.67
2017-03-12T06:42:36.547Z,1021.67
2017-03-12T06:43:17.039Z,1021.71
2017-03-12T06:43:57.583Z,1021.75
2017-03-12T06:44:38.046Z,1021.7
2017-03-12T06:45:18.524Z,1021.75
2017-03-12T06:45:59.031Z,1021.77
2017-03-12T06:46:39.534Z,1021.78
2017-03-12T06:47:20.005Z,1021.75
2017-03-12T06:48:00.502Z,1021.73
2017-03-12T06:48:41.000Z,1021.76
2017-03-12T06:49:21.495Z,1021.76
2017-03-12T06:50:02.015Z,1021.74
2017-03-12T06:50:42.497Z,1021.78
2017-03-12T06:51:23.003Z,1021.8
2017-03-12T06:52:03.494Z,1021.8
2017-03-12T06:52:43.995Z,1021.8
2017-03-12T06:53:24.487Z,1021.79
2017-03-12T06:54:04.957Z,1021.81
2017-03-12T06:54:45.467Z,1021.78
2017-03-12T06:55:26.031Z,1021.77
2017-03-12T06:56:06.540Z,1021.78
2017-03-12T06:56:47.047Z,1021.77
2017-03-12T06:57:27.593Z,1021.76
2017-03-12T06:58:08.152Z,1021.82
2017-03-12T06:58:48.597Z,1021.81
2017-03-12T06:59:29.084Z,1021.78
2017-03-12T07:00:09.639Z,1021.78
2017-03-12T07:00:50.133Z,1021.83
2017-03-12T07:01:30.621Z,1021.82
2017-03-12T07:02:11.110Z,1021.8
2017-03-12T07:04:09.317Z,1021.79
2017-03-12T07:04:49.744Z,1021.8
2017-03-12T07:05:30.226Z,1021.75
2017-03-12T07:06:10.763Z,1021.79
2017-03-12T07:06:51.286Z,1021.8
2017-03-12T07:07:31.771Z,1021.76
2017-03-12T07:08:12.250Z,1021.76
2017-03-12T07:08:52.703Z,1021.8
2017-03-12T07:09:33.212Z,1021.79
2017-03-12T07:10:13.701Z,1021.73
2017-03-12T07:10:54.233Z,1021.8
2017-03-12T07:11:34.706Z,1021.78
2017-03-12T07:12:15.229Z,1021.77
2017-03-12T07:12:55.721Z,1021.77
2017-03-12T07:13:36.202Z,1021.75
2017-03-12T07:14:16.764Z,1021.74
2017-03-12T07:14:57.232Z,1021.74
2017-03-12T07:15:37.706Z,1021.83
2017-03-12T07:16:18.176Z,1021.79
2017-03-12T07:16:58.693Z,1021.78
2017-03-12T07:17:39.206Z,1021.82
2017-03-12T07:18:19.733Z,1021.84
2017-03-12T07:19:00.233Z,1021.81
2017-03-12T07:19:40.686Z,1021.8
2017-03-12T07:20:21.169Z,1021.79
2017-03-12T07:21:01.653Z,1021.76
2017-03-12T07:21:42.168Z,1021.8
2017-03-12T07:22:22.703Z,1021.83
2017-03-12T07:23:03.165Z,1021.82
2017-03-12T07:23:43.641Z,1021.8
2017-03-12T07:24:24.165Z,1021.8
2017-03-12T07:25:04.599Z,1021.79
2017-03-12T07:25:45.091Z,1021.86
2017-03-12T07:26:25.612Z,1021.8
2017-03-12T07:27:06.049Z,1021.87
2017-03-12T07:27:46.534Z,1021.8
2017-03-12T07:28:27.040Z,1021.85
2017-03-12T07:29:07.514Z,1021.87
2017-03-12T07:29:47.978Z,1021.83
2017-03-12T07:30:28.473Z,1021.83
2017-03-12T07:31:08.940Z,1021.88
2017-03-12T07:31:49.435Z,1021.87
2017-03-12T07:32:29.895Z,1021.88
2017-03-12T07:33:10.387Z,1021.87
2017-03-12T07:33:50.891Z,1021.87
2017-03-12T07:34:31.362Z,1021.86
2017-03-12T07:35:11.864Z,1021.82
2017-03-12T07:35:52.360Z,1021.86
2017-03-12T07:36:32.852Z,1021.87
2017-03-12T07:37:13.354Z,1021.87
2017-03-12T07:37:53.869Z,1021.85
2017-03-12T07:38:34.386Z,1021.83
2017-03-12T07:39:14.865Z,1021.81
2017-03-12T07:39:55.371Z,1021.84
2017-03-12T07:40:35.841Z,1021.84
2017-03-12T07:41:16.327Z,1021.84
2017-03-12T07:41:56.816Z,1021.84
2017-03-12T07:42:37.341Z,1021.83
2017-03-12T07:43:17.823Z,1021.82
2017-03-12T07:43:58.313Z,1021.83
2017-03-12T07:44:38.817Z,1021.8
2017-03-12T07:45:19.320Z,1021.82
2017-03-12T07:45:59.801Z,1021.86
2017-03-12T07:46:40.290Z,1021.84
2017-03-12T07:47:20.802Z,1021.86
2017-03-12T07:48:01.393Z,1021.87
2017-03-12T07:48:41.922Z,1021.86
2017-03-12T07:49:22.422Z,1021.87
2017-03-12T07:50:02.896Z,1021.86
2017-03-12T07:50:43.383Z,1021.81
2017-03-12T07:51:23.922Z,1021.8
2017-03-12T07:52:04.464Z,1021.9
2017-03-12T07:52:44.955Z,1021.93
2017-03-12T07:53:25.457Z,1021.91
2017-03-12T07:54:05.914Z,1021.94
2017-03-12T07:54:46.472Z,1021.94
2017-03-12T07:55:27.006Z,1021.94
2017-03-12T07:56:07.531Z,1021.93
2017-03-12T07:56:47.984Z,1021.95
2017-03-12T07:57:28.484Z,1021.95
2017-03-12T07:58:08.967Z,1021.92
2017-03-12T07:58:49.452Z,1021.97
2017-03-12T07:59:29.950Z,1021.96
2017-03-12T08:00:10.445Z,1021.99
2017-03-12T08:00:50.910Z,1021.96
2017-03-12T08:01:31.400Z,1021.99
2017-03-12T08:02:11.909Z,1021.99
2017-03-12T08:02:52.432Z,1022.02
2017-03-12T08:03:32.900Z,1022.02
2017-03-12T08:04:13.356Z,1022.03
2017-03-12T08:04:53.886Z,1022.04
2017-03-12T08:05:34.398Z,1022.03
2017-03-12T08:06:14.927Z,1022.03
2017-03-12T08:06:55.416Z,1022.06
2017-03-12T08:07:35.908Z,1022.06
2017-03-12T08:08:16.405Z,1022.13
2017-03-12T08:08:56.900Z,1022.12
2017-03-12T08:09:37.357Z,1022.1
2017-03-12T08:10:17.879Z,1022.1
2017-03-12T08:10:58.436Z,1022.16
2017-03-12T08:11:38.904Z,1022.11
2017-03-12T08:12:19.410Z,1022.13
2017-03-12T08:12:59.922Z,1022.12
2017-03-12T08:13:40.393Z,1022.11